Time;durP1;ratioP1;P1;durP2;ratioP2;P2;SDS_P1;SDS_P2;PMS_P1;PMS_P2;Temp;Humidity;BMP_temperature;BMP_pressure;BME280_temperature;BME280_humidity;BME280_pressure;Samples;Min_cycle;Max_cycle;Signal;HPM_P1;HPM_P2
2023/04/25 00:02:06;;;;;;;1.67;1.37;;;;;;;;;;5100734;27;94565;-66
2023/04/25 00:04:35;;;;;;;1.77;0.90;;;;;;;;;;5082567;27;93738;-66
2023/04/25 00:07:04;;;;;;;0.83;0.80;;;;;;;;;;5082874;27;92189;-66
2023/04/25 00:09:33;;;;;;;2.77;0.70;;;;;;;;;;5099968;27;92161;-66
2023/04/25 00:12:03;;;;;;;0.73;0.70;;;;;;;;;;5084373;27;95083;-66
2023/04/25 00:14:33;;;;;;;1.30;0.80;;;;;;;;;;5100316;27;94840;-66
2023/04/25 00:17:02;;;;;;;1.97;1.07;;;;;;;;;;5092079;27;92176;-65
2023/04/25 00:19:32;;;;;;;1.17;0.70;;;;;;;;;;5081987;27;92170;-66
2023/04/25 00:22:00;;;;;;;2.00;0.70;;;;;;;;;;5098346;27;94156;-66
2023/04/25 00:24:29;;;;;;;1.10;0.80;;;;;;;;;;5087554;27;93106;-66
2023/04/25 00:26:57;;;;;;;0.83;0.83;;;;;;;;;;5093395;27;91888;-65
2023/04/25 00:29:27;;;;;;;0.50;0.50;;;;;;;;;;5083016;27;91386;-66
2023/04/25 00:31:55;;;;;;;1.67;0.87;;;;;;;;;;5082153;27;94110;-65
2023/04/25 00:34:24;;;;;;;1.20;0.77;;;;;;;;;;5082220;27;93900;-66
2023/04/25 00:36:52;;;;;;;2.23;1.10;;;;;;;;;;5098151;27;92895;-66
2023/04/25 00:39:21;;;;;;;0.87;0.67;;;;;;;;;;5086366;27;92052;-66
2023/04/25 00:41:52;;;;;;;1.17;0.63;;;;;;;;;;5101323;27;94579;-65
2023/04/25 00:44:21;;;;;;;1.40;0.60;;;;;;;;;;5081716;27;92639;-65
2023/04/25 00:46:51;;;;;;;1.43;0.80;;;;;;;;;;5110550;27;92023;-66
2023/04/25 00:49:19;;;;;;;0.73;0.67;;;;;;;;;;5103367;27;92026;-66
2023/04/25 00:51:48;;;;;;;4.23;1.20;;;;;;;;;;5083655;27;92938;-66
2023/04/25 00:54:16;;;;;;;0.50;0.50;;;;;;;;;;5096660;27;93815;-66
2023/04/25 00:56:45;;;;;;;0.63;0.63;;;;;;;;;;5091544;27;92110;-66
2023/04/25 00:59:13;;;;;;;0.73;0.73;;;;;;;;;;5102965;27;91857;-66
2023/04/25 01:01:42;;;;;;;0.83;0.83;;;;;;;;;;5101407;27;95113;-66
2023/04/25 01:04:13;;;;;;;0.67;0.60;;;;;;;;;;5102086;27;94786;-66
2023/04/25 01:06:42;;;;;;;1.33;1.10;;;;;;;;;;5103513;27;92085;-66
2023/04/25 01:09:10;;;;;;;0.60;0.60;;;;;;;;;;5122028;27;92026;-65
2023/04/25 01:11:40;;;;;;;2.20;0.90;;;;;;;;;;5109104;27;93940;-66
2023/04/25 01:14:08;;;;;;;0.50;0.50;;;;;;;;;;5120722;27;93733;-66
2023/04/25 01:16:37;;;;;;;1.17;0.60;;;;;;;;;;5122217;27;92191;-66
2023/04/25 01:19:06;;;;;;;2.17;0.70;;;;;;;;;;5102651;27;91220;-66
2023/04/25 01:21:36;;;;;;;2.57;0.73;;;;;;;;;;5101507;27;94110;-66
2023/04/25 01:24:05;;;;;;;1.17;0.70;;;;;;;;;;5102158;27;93716;-66
2023/04/25 01:26:33;;;;;;;1.20;1.10;;;;;;;;;;5112142;27;93130;-66
2023/04/25 01:29:02;;;;;;;1.17;0.70;;;;;;;;;;5102190;27;92088;-66
2023/04/25 01:31:30;;;;;;;1.07;0.87;;;;;;;;;;5114225;27;94485;-66
2023/04/25 01:34:02;;;;;;;1.43;0.97;;;;;;;;;;5122794;27;93826;-66
2023/04/25 01:36:31;;;;;;;0.57;0.57;;;;;;;;;;5122480;27;91814;-66
2023/04/25 01:39:01;;;;;;;0.83;0.63;;;;;;;;;;5122142;27;91908;-67
2023/04/25 01:41:29;;;;;;;0.93;0.87;;;;;;;;;;5122097;27;94320;-66
2023/04/25 01:43:57;;;;;;;3.90;0.97;;;;;;;;;;5107278;27;93809;-66
2023/04/25 01:46:26;;;;;;;2.77;0.80;;;;;;;;;;5101315;27;92176;-67
2023/04/25 01:48:55;;;;;;;1.53;0.60;;;;;;;;;;5101773;27;92046;-66
2023/04/25 01:51:23;;;;;;;2.10;0.50;;;;;;;;;;5100265;27;94925;-67
2023/04/25 01:53:52;;;;;;;0.67;0.60;;;;;;;;;;5101034;27;94690;-66
2023/04/25 01:56:22;;;;;;;1.30;0.70;;;;;;;;;;5101679;27;92130;-66
2023/04/25 01:58:50;;;;;;;0.60;0.60;;;;;;;;;;5086526;27;93484;-66
2023/04/25 02:01:18;;;;;;;1.03;0.67;;;;;;;;;;5079192;27;93255;-68
2023/04/25 02:03:47;;;;;;;2.77;0.83;;;;;;;;;;5080536;27;93884;-66
2023/04/25 02:06:16;;;;;;;1.63;0.40;;;;;;;;;;5080419;27;93078;-66
2023/04/25 02:08:44;;;;;;;1.10;1.00;;;;;;;;;;5080965;27;91221;-67
2023/04/25 02:11:12;;;;;;;2.73;1.10;;;;;;;;;;5080584;27;93943;-66
2023/04/25 02:13:42;;;;;;;0.50;0.50;;;;;;;;;;5080408;27;95731;-66
2023/04/25 02:16:10;;;;;;;3.97;0.60;;;;;;;;;;5080070;27;92999;-67
2023/04/25 02:18:39;;;;;;;1.80;0.80;;;;;;;;;;5079862;27;92111;-66
2023/04/25 02:21:07;;;;;;;0.57;0.57;;;;;;;;;;5100168;27;94319;-66
2023/04/25 02:23:36;;;;;;;2.53;0.60;;;;;;;;;;5100859;27;93889;-66
2023/04/25 02:26:04;;;;;;;0.47;0.40;;;;;;;;;;5101282;27;91888;-66
2023/04/25 02:28:32;;;;;;;0.40;0.40;;;;;;;;;;5100781;27;92199;-66
2023/04/25 02:31:03;;;;;;;0.90;0.40;;;;;;;;;;5100727;27;93907;-66
2023/04/25 02:33:31;;;;;;;1.20;0.93;;;;;;;;;;5100928;27;93839;-66
2023/04/25 02:35:59;;;;;;;2.27;0.60;;;;;;;;;;5100797;27;92051;-66
2023/04/25 02:38:28;;;;;;;4.10;0.73;;;;;;;;;;5100777;27;93160;-66
2023/04/25 02:40:56;;;;;;;0.40;0.40;;;;;;;;;;5099437;27;95449;-66
2023/04/25 02:43:24;;;;;;;0.50;0.50;;;;;;;;;;5100588;27;95161;-65
2023/04/25 02:45:53;;;;;;;0.30;0.30;;;;;;;;;;5100725;27;92051;-66
2023/04/25 02:48:23;;;;;;;0.90;0.43;;;;;;;;;;5100155;27;92006;-66
2023/04/25 02:50:51;;;;;;;0.40;0.40;;;;;;;;;;5099726;27;94115;-66
2023/04/25 02:53:19;;;;;;;2.43;0.67;;;;;;;;;;5099787;27;93601;-66
2023/04/25 02:55:48;;;;;;;0.40;0.40;;;;;;;;;;5100280;27;92063;-66
2023/04/25 02:58:16;;;;;;;1.20;0.60;;;;;;;;;;5100440;27;91209;-66
2023/04/25 03:00:45;;;;;;;1.20;0.40;;;;;;;;;;5100050;27;93951;-66
2023/04/25 03:03:13;;;;;;;0.67;0.60;;;;;;;;;;5099291;27;94267;-66
2023/04/25 03:05:43;;;;;;;0.60;0.40;;;;;;;;;;5098009;27;93134;-66
2023/04/25 03:08:11;;;;;;;1.03;0.93;;;;;;;;;;5100447;27;92042;-66
2023/04/25 03:10:40;;;;;;;0.60;0.60;;;;;;;;;;5098064;27;93103;-67
2023/04/25 03:13:08;;;;;;;0.77;0.77;;;;;;;;;;5095954;27;93789;-66
2023/04/25 03:15:36;;;;;;;0.97;0.60;;;;;;;;;;5124881;27;92016;-66
2023/04/25 03:18:05;;;;;;;0.53;0.53;;;;;;;;;;5110862;27;91855;-66
2023/04/25 03:20:34;;;;;;;0.60;0.60;;;;;;;;;;5103519;27;94309;-66
2023/04/25 03:23:03;;;;;;;1.83;0.50;;;;;;;;;;5104126;27;93836;-66
2023/04/25 03:25:32;;;;;;;0.63;0.60;;;;;;;;;;5104446;27;92110;-66
2023/04/25 03:28:00;;;;;;;0.70;0.70;;;;;;;;;;5103827;27;92072;-66
2023/04/25 03:30:29;;;;;;;1.10;0.70;;;;;;;;;;5118937;27;95046;-67
2023/04/25 03:32:57;;;;;;;2.90;0.63;;;;;;;;;;5124176;27;95052;-66
2023/04/25 03:35:26;;;;;;;0.40;0.33;;;;;;;;;;5124463;27;92066;-67
2023/04/25 03:37:54;;;;;;;1.07;0.57;;;;;;;;;;5124519;27;92017;-66
2023/04/25 03:40:24;;;;;;;0.53;0.40;;;;;;;;;;5124276;27;93871;-65
2023/04/25 03:42:52;;;;;;;0.30;0.30;;;;;;;;;;5120325;27;93753;-66
2023/04/25 03:45:21;;;;;;;1.03;0.93;;;;;;;;;;5089241;27;93769;-66
2023/04/25 03:47:49;;;;;;;0.90;0.70;;;;;;;;;;5077014;27;91423;-65
2023/04/25 03:50:18;;;;;;;0.30;0.30;;;;;;;;;;5081292;27;94158;-67
2023/04/25 03:52:46;;;;;;;0.63;0.63;;;;;;;;;;5080857;27;93737;-67
2023/04/25 03:55:15;;;;;;;0.30;0.30;;;;;;;;;;5091851;27;92966;-67
2023/04/25 03:57:44;;;;;;;0.40;0.23;;;;;;;;;;5092807;27;92039;-68
2023/04/25 04:00:13;;;;;;;0.87;0.53;;;;;;;;;;5097018;27;92840;-67
2023/04/25 04:02:42;;;;;;;0.73;0.73;;;;;;;;;;5102928;27;93874;-68
2023/04/25 04:05:12;;;;;;;1.60;0.50;;;;;;;;;;5103167;27;91838;-66
2023/04/25 04:07:42;;;;;;;0.50;0.50;;;;;;;;;;5086341;27;93356;-66
2023/04/25 04:10:11;;;;;;;0.60;0.50;;;;;;;;;;5082233;27;95886;-66
2023/04/25 04:12:39;;;;;;;0.37;0.37;;;;;;;;;;5085503;27;93901;-66
2023/04/25 04:15:10;;;;;;;0.30;0.30;;;;;;;;;;5085778;27;92498;-66
2023/04/25 04:17:38;;;;;;;0.40;0.40;;;;;;;;;;5088047;27;92035;-65
2023/04/25 04:20:08;;;;;;;0.30;0.30;;;;;;;;;;5081355;27;95069;-65
2023/04/25 04:22:37;;;;;;;0.60;0.60;;;;;;;;;;5081767;27;94585;-66
2023/04/25 04:25:06;;;;;;;0.40;0.40;;;;;;;;;;5081551;27;92080;-66
2023/04/25 04:27:35;;;;;;;0.40;0.40;;;;;;;;;;5082442;27;92082;-66
2023/04/25 04:30:03;;;;;;;0.40;0.40;;;;;;;;;;5082105;27;94195;-65
2023/04/25 04:32:34;;;;;;;1.83;0.70;;;;;;;;;;5081927;27;93802;-66
2023/04/25 04:35:03;;;;;;;0.50;0.50;;;;;;;;;;5082442;27;92127;-66
2023/04/25 04:37:32;;;;;;;0.67;0.67;;;;;;;;;;5082175;27;91854;-65
2023/04/25 04:40:04;;;;;;;1.03;0.70;;;;;;;;;;5081151;27;94351;-66
2023/04/25 04:42:33;;;;;;;0.53;0.47;;;;;;;;;;5081555;27;93846;-65
2023/04/25 04:45:02;;;;;;;0.67;0.40;;;;;;;;;;5081744;27;92902;-65
2023/04/25 04:47:32;;;;;;;0.53;0.50;;;;;;;;;;5081265;27;92023;-66
2023/04/25 04:50:02;;;;;;;0.70;0.63;;;;;;;;;;5081349;27;94160;-66
2023/04/25 04:52:30;;;;;;;2.63;0.80;;;;;;;;;;5081509;27;93786;-65
2023/04/25 04:54:59;;;;;;;0.20;0.20;;;;;;;;;;5081644;27;92054;-65
2023/04/25 04:57:27;;;;;;;1.03;0.60;;;;;;;;;;5081702;27;91954;-67
2023/04/25 04:59:55;;;;;;;2.73;0.70;;;;;;;;;;5081506;27;95239;-67
2023/04/25 05:02:24;;;;;;;0.57;0.57;;;;;;;;;;5081744;27;94247;-68
2023/04/25 05:04:52;;;;;;;0.60;0.60;;;;;;;;;;5081823;27;91763;-65
2023/04/25 05:07:22;;;;;;;0.30;0.30;;;;;;;;;;5081195;27;92091;-67
2023/04/25 05:09:50;;;;;;;0.40;0.40;;;;;;;;;;5080417;27;95152;-65
2023/04/25 05:12:18;;;;;;;0.30;0.30;;;;;;;;;;5099102;27;94775;-68
2023/04/25 05:14:47;;;;;;;1.13;0.43;;;;;;;;;;5123638;27;92008;-67
2023/04/25 05:17:15;;;;;;;0.73;0.50;;;;;;;;;;5105435;27;92294;-66
2023/04/25 05:19:44;;;;;;;0.43;0.37;;;;;;;;;;5082193;27;94131;-65
2023/04/25 05:22:12;;;;;;;1.10;0.60;;;;;;;;;;5082066;27;93650;-65
2023/04/25 05:24:41;;;;;;;0.30;0.30;;;;;;;;;;5083333;27;92114;-66
2023/04/25 05:27:10;;;;;;;1.57;0.40;;;;;;;;;;5100938;27;91654;-66
2023/04/25 05:29:39;;;;;;;2.03;0.40;;;;;;;;;;5096543;27;93951;-66
2023/04/25 05:32:08;;;;;;;0.93;0.43;;;;;;;;;;5122584;27;93835;-66
2023/04/25 05:34:37;;;;;;;0.83;0.50;;;;;;;;;;5107661;27;93096;-65
2023/04/25 05:37:06;;;;;;;0.50;0.50;;;;;;;;;;5101586;27;91978;-66
2023/04/25 05:39:44;;;;;;;2.20;0.80;;;;;;;;;;5101305;27;94065;-66
2023/04/25 05:42:12;;;;;;;0.77;0.60;;;;;;;;;;5101140;27;93649;-66
2023/04/25 05:44:41;;;;;;;0.60;0.37;;;;;;;;;;5099004;27;92153;-66
2023/04/25 05:47:09;;;;;;;0.40;0.37;;;;;;;;;;5101135;27;92051;-66
2023/04/25 05:49:37;;;;;;;1.10;0.50;;;;;;;;;;5083210;27;94177;-66
2023/04/25 05:52:06;;;;;;;0.50;0.50;;;;;;;;;;5096988;27;92664;-67
2023/04/25 05:54:34;;;;;;;0.30;0.30;;;;;;;;;;5082321;27;92423;-66
2023/04/25 05:57:04;;;;;;;1.50;0.60;;;;;;;;;;5084516;27;92085;-66
2023/04/25 05:59:33;;;;;;;0.60;0.60;;;;;;;;;;5080172;27;95060;-66
2023/04/25 06:02:01;;;;;;;2.37;0.57;;;;;;;;;;5096862;27;94830;-66
2023/04/25 06:04:30;;;;;;;1.67;0.57;;;;;;;;;;5093551;27;92217;-66
2023/04/25 06:06:59;;;;;;;0.97;0.60;;;;;;;;;;5093823;27;93478;-66
2023/04/25 06:09:27;;;;;;;0.30;0.30;;;;;;;;;;5080411;27;94182;-66
2023/04/25 06:11:55;;;;;;;0.57;0.43;;;;;;;;;;5095505;27;93173;-66
2023/04/25 06:14:25;;;;;;;0.40;0.40;;;;;;;;;;5082161;27;93800;-66
2023/04/25 06:16:56;;;;;;;0.50;0.50;;;;;;;;;;5086388;27;91329;-66
2023/04/25 06:19:25;;;;;;;0.40;0.40;;;;;;;;;;5092051;27;94063;-66
2023/04/25 06:21:53;;;;;;;0.40;0.40;;;;;;;;;;5079769;27;92980;-66
2023/04/25 06:24:21;;;;;;;0.93;0.50;;;;;;;;;;5081033;27;94444;-66
2023/04/25 06:26:50;;;;;;;0.30;0.30;;;;;;;;;;5080886;27;92089;-66
2023/04/25 06:29:18;;;;;;;0.83;0.50;;;;;;;;;;5080402;27;94057;-66
2023/04/25 06:31:48;;;;;;;0.60;0.60;;;;;;;;;;5080640;27;93905;-66
2023/04/25 06:34:17;;;;;;;0.37;0.37;;;;;;;;;;5088509;27;92052;-66
2023/04/25 06:36:46;;;;;;;0.40;0.40;;;;;;;;;;5085936;27;92124;-66
2023/04/25 06:39:15;;;;;;;0.50;0.50;;;;;;;;;;5079282;27;94007;-66
2023/04/25 06:41:44;;;;;;;0.30;0.30;;;;;;;;;;5080311;27;93899;-66
2023/04/25 06:44:12;;;;;;;1.03;0.57;;;;;;;;;;5081360;27;91992;-66
2023/04/25 06:46:40;;;;;;;0.30;0.30;;;;;;;;;;5091666;27;92126;-66
2023/04/25 06:49:10;;;;;;;0.27;0.27;;;;;;;;;;5109708;27;95009;-66
2023/04/25 06:51:38;;;;;;;0.30;0.30;;;;;;;;;;5097870;27;94936;-66
2023/04/25 06:54:07;;;;;;;0.53;0.53;;;;;;;;;;5088128;27;91869;-66
2023/04/25 06:56:35;;;;;;;1.70;0.73;;;;;;;;;;5088982;27;92165;-66
2023/04/25 06:59:04;;;;;;;0.43;0.30;;;;;;;;;;5105656;27;94047;-66
2023/04/25 07:01:32;;;;;;;0.40;0.40;;;;;;;;;;5106395;27;93970;-66
2023/04/25 07:04:00;;;;;;;0.27;0.27;;;;;;;;;;5105653;27;92097;-66
2023/04/25 07:06:31;;;;;;;1.50;0.37;;;;;;;;;;5098086;27;91480;-66
2023/04/25 07:08:59;;;;;;;1.13;0.53;;;;;;;;;;5086655;27;94141;-66
2023/04/25 07:11:28;;;;;;;2.53;0.97;;;;;;;;;;5090784;27;93634;-66
2023/04/25 07:13:56;;;;;;;0.50;0.50;;;;;;;;;;5093806;27;93039;-66
2023/04/25 07:16:24;;;;;;;0.50;0.37;;;;;;;;;;5085340;27;92669;-66
2023/04/25 07:18:53;;;;;;;0.37;0.37;;;;;;;;;;5104694;27;94326;-66
2023/04/25 07:21:21;;;;;;;0.60;0.60;;;;;;;;;;5098868;27;93904;-67
2023/04/25 07:23:52;;;;;;;0.43;0.27;;;;;;;;;;5085033;27;92698;-66
2023/04/25 07:26:20;;;;;;;0.50;0.50;;;;;;;;;;5085473;27;92009;-66
2023/04/25 07:28:50;;;;;;;0.43;0.43;;;;;;;;;;5083886;27;94107;-66
2023/04/25 07:31:19;;;;;;;0.73;0.23;;;;;;;;;;5084490;27;94043;-67
2023/04/25 07:33:48;;;;;;;0.80;0.70;;;;;;;;;;5085187;27;92285;-66
2023/04/25 07:36:16;;;;;;;0.30;0.30;;;;;;;;;;5084434;27;92432;-66
2023/04/25 07:38:44;;;;;;;0.83;0.40;;;;;;;;;;5083613;27;95337;-66
2023/04/25 07:41:14;;;;;;;0.53;0.53;;;;;;;;;;5085542;27;94773;-66
2023/04/25 07:43:43;;;;;;;1.07;0.30;;;;;;;;;;5085767;27;92061;-66
2023/04/25 07:46:11;;;;;;;2.07;0.60;;;;;;;;;;5086125;27;91765;-65
2023/04/25 07:48:40;;;;;;;0.30;0.30;;;;;;;;;;5086085;27;94162;-65
2023/04/25 07:51:08;;;;;;;0.70;0.70;;;;;;;;;;5086170;27;93903;-65
2023/04/25 07:53:37;;;;;;;0.40;0.40;;;;;;;;;;5085994;27;92083;-66
2023/04/25 07:56:06;;;;;;;1.73;0.43;;;;;;;;;;5086397;27;91272;-65
2023/04/25 07:58:36;;;;;;;0.50;0.50;;;;;;;;;;5085058;27;94156;-66
2023/04/25 08:01:04;;;;;;;0.60;0.50;;;;;;;;;;5082467;27;93855;-66
2023/04/25 08:03:33;;;;;;;0.53;0.40;;;;;;;;;;5082146;27;93024;-65
2023/04/25 08:06:02;;;;;;;1.97;0.30;;;;;;;;;;5082625;27;91964;-65
2023/04/25 08:08:35;;;;;;;2.77;1.00;;;;;;;;;;5082243;27;94115;-65
2023/04/25 08:11:03;;;;;;;3.00;0.50;;;;;;;;;;5082478;27;93944;-66
2023/04/25 08:13:31;;;;;;;0.33;0.33;;;;;;;;;;5082912;27;92226;-65
2023/04/25 08:16:02;;;;;;;0.33;0.33;;;;;;;;;;5082034;27;92016;-66
2023/04/25 08:18:30;;;;;;;0.30;0.30;;;;;;;;;;5082365;27;94167;-68
2023/04/25 08:20:59;;;;;;;1.27;0.50;;;;;;;;;;5082609;27;94084;-68
2023/04/25 08:23:27;;;;;;;0.20;0.20;;;;;;;;;;5081864;27;92024;-67
2023/04/25 08:25:56;;;;;;;1.37;0.50;;;;;;;;;;5081895;27;91977;-66
2023/04/25 08:28:24;;;;;;;0.30;0.30;;;;;;;;;;5081341;27;95020;-66
2023/04/25 08:30:53;;;;;;;0.40;0.30;;;;;;;;;;5081890;27;94646;-66
2023/04/25 08:33:23;;;;;;;0.40;0.40;;;;;;;;;;5082208;27;91882;-66
2023/04/25 08:35:51;;;;;;;1.00;0.47;;;;;;;;;;5082112;27;92044;-66
2023/04/25 08:38:20;;;;;;;0.87;0.50;;;;;;;;;;5082273;27;94096;-66
2023/04/25 08:40:50;;;;;;;0.63;0.50;;;;;;;;;;5082111;27;93810;-66
2023/04/25 08:43:19;;;;;;;2.77;0.57;;;;;;;;;;5082261;27;91910;-66
2023/04/25 08:45:48;;;;;;;0.67;0.50;;;;;;;;;;5081921;27;91379;-66
2023/04/25 08:48:17;;;;;;;0.63;0.47;;;;;;;;;;5081394;27;94019;-67
2023/04/25 08:50:51;;;;;;;1.50;0.40;;;;;;;;;;5081832;27;93756;-66
2023/04/25 08:53:22;;;;;;;0.20;0.20;;;;;;;;;;5080793;27;92909;-66
2023/04/25 08:55:50;;;;;;;0.97;0.40;;;;;;;;;;5081664;27;92037;-66
2023/04/25 08:58:19;;;;;;;0.40;0.40;;;;;;;;;;5081713;27;94061;-66
2023/04/25 09:00:47;;;;;;;0.43;0.43;;;;;;;;;;5081326;27;93974;-66
2023/04/25 09:03:16;;;;;;;1.37;0.40;;;;;;;;;;5081700;27;91958;-67
2023/04/25 09:05:44;;;;;;;1.07;0.30;;;;;;;;;;5082188;27;92037;-66
2023/04/25 09:08:14;;;;;;;0.63;0.50;;;;;;;;;;5081599;27;94091;-67
2023/04/25 09:10:43;;;;;;;0.50;0.50;;;;;;;;;;5081405;27;93887;-66
2023/04/25 09:13:14;;;;;;;0.60;0.40;;;;;;;;;;5081859;27;92057;-66
2023/04/25 09:15:49;;;;;;;0.30;0.30;;;;;;;;;;5081714;27;91975;-67
2023/04/25 09:18:24;;;;;;;0.60;0.60;;;;;;;;;;5080674;27;94809;-66
2023/04/25 09:20:57;;;;;;;0.30;0.30;;;;;;;;;;5081511;27;94863;-66
2023/04/25 09:23:30;;;;;;;1.80;0.40;;;;;;;;;;5081600;27;92075;-66
2023/04/25 09:25:59;;;;;;;0.40;0.30;;;;;;;;;;5081736;27;92047;-67
2023/04/25 09:28:29;;;;;;;0.20;0.20;;;;;;;;;;5081545;27;94174;-66
2023/04/25 09:30:58;;;;;;;0.30;0.30;;;;;;;;;;5081117;27;93721;-66
2023/04/25 09:33:30;;;;;;;0.43;0.20;;;;;;;;;;5081594;27;92062;-66
2023/04/25 09:36:03;;;;;;;0.30;0.30;;;;;;;;;;5081274;27;91262;-66
2023/04/25 09:38:32;;;;;;;0.27;0.27;;;;;;;;;;5080655;27;94164;-66
2023/04/25 09:41:01;;;;;;;0.97;0.53;;;;;;;;;;5080886;27;94338;-66
2023/04/25 09:43:30;;;;;;;0.20;0.20;;;;;;;;;;5081196;27;93027;-66
2023/04/25 09:46:00;;;;;;;0.30;0.30;;;;;;;;;;5081020;27;92055;-66
2023/04/25 09:48:28;;;;;;;0.50;0.50;;;;;;;;;;5081388;27;94170;-66
2023/04/25 09:51:06;;;;;;;0.40;0.40;;;;;;;;;;5081574;27;93959;-66
2023/04/25 09:53:37;;;;;;;0.60;0.33;;;;;;;;;;5081199;27;92035;-66
2023/04/25 09:56:09;;;;;;;0.30;0.30;;;;;;;;;;5080697;27;92216;-66
2023/04/25 09:58:37;;;;;;;0.53;0.53;;;;;;;;;;5080854;27;94281;-66
2023/04/25 10:01:06;;;;;;;0.30;0.30;;;;;;;;;;5080776;27;93659;-65
2023/04/25 10:03:35;;;;;;;1.10;0.70;;;;;;;;;;5080952;27;91908;-66
2023/04/25 10:06:04;;;;;;;1.30;0.23;;;;;;;;;;5080907;27;91924;-66
2023/04/25 10:08:33;;;;;;;1.37;0.43;;;;;;;;;;5079980;27;94997;-66
2023/04/25 10:11:03;;;;;;;0.30;0.30;;;;;;;;;;5080152;27;95136;-67
2023/04/25 10:13:32;;;;;;;0.40;0.40;;;;;;;;;;5081391;27;91922;-66
2023/04/25 10:16:00;;;;;;;0.37;0.30;;;;;;;;;;5080781;27;92014;-69
2023/04/25 10:18:29;;;;;;;0.30;0.30;;;;;;;;;;5080247;27;94393;-66
2023/04/25 10:20:58;;;;;;;3.00;0.47;;;;;;;;;;5080070;27;93788;-66
2023/04/25 10:23:26;;;;;;;1.37;0.40;;;;;;;;;;5079747;27;92088;-66
2023/04/25 10:25:55;;;;;;;0.43;0.40;;;;;;;;;;5081323;27;91217;-66
2023/04/25 10:28:24;;;;;;;0.20;0.20;;;;;;;;;;5079692;27;94205;-66
2023/04/25 10:31:00;;;;;;;0.37;0.30;;;;;;;;;;5080114;27;93829;-66
2023/04/25 10:33:34;;;;;;;1.67;0.40;;;;;;;;;;5079500;27;92948;-66
2023/04/25 10:36:10;;;;;;;0.40;0.30;;;;;;;;;;5080226;27;92090;-67
2023/04/25 10:38:38;;;;;;;2.33;0.40;;;;;;;;;;5079960;27;94234;-66
2023/04/25 10:41:08;;;;;;;0.20;0.20;;;;;;;;;;5080139;27;93770;-66
2023/04/25 10:43:38;;;;;;;0.20;0.20;;;;;;;;;;5079868;27;92049;-66
2023/04/25 10:46:19;;;;;;;0.30;0.30;;;;;;;;;;5079620;27;91970;-66
2023/04/25 10:48:49;;;;;;;0.80;0.50;;;;;;;;;;5079944;27;93111;-66
2023/04/25 10:51:21;;;;;;;0.50;0.50;;;;;;;;;;5079884;27;93827;-66
2023/04/25 10:53:58;;;;;;;0.30;0.30;;;;;;;;;;5079850;27;92013;-66
2023/04/25 10:56:27;;;;;;;0.40;0.40;;;;;;;;;;5080441;27;92099;-66
2023/04/25 10:59:06;;;;;;;0.20;0.20;;;;;;;;;;5079246;27;95509;-66
2023/04/25 11:01:37;;;;;;;0.40;0.30;;;;;;;;;;5079142;27;94908;-66
2023/04/25 11:04:06;;;;;;;1.40;0.50;;;;;;;;;;5080079;27;92081;-65
2023/04/25 11:06:38;;;;;;;1.40;0.40;;;;;;;;;;5079576;27;92171;-66
2023/04/25 11:09:12;;;;;;;0.47;0.40;;;;;;;;;;5079916;27;93040;-66
2023/04/25 11:11:41;;;;;;;0.30;0.30;;;;;;;;;;5079755;27;93779;-66
2023/04/25 11:14:10;;;;;;;0.23;0.23;;;;;;;;;;5080114;27;92076;-66
2023/04/25 11:16:39;;;;;;;0.87;0.50;;;;;;;;;;5079837;27;91333;-66
2023/04/25 11:19:07;;;;;;;0.30;0.30;;;;;;;;;;5079864;27;94072;-66
2023/04/25 11:21:36;;;;;;;0.50;0.33;;;;;;;;;;5079841;27;93802;-66
2023/04/25 11:24:04;;;;;;;0.40;0.40;;;;;;;;;;5079618;27;93137;-66
2023/04/25 11:26:33;;;;;;;2.40;0.40;;;;;;;;;;5079962;27;91935;-66
2023/04/25 11:29:01;;;;;;;0.40;0.40;;;;;;;;;;5079312;27;94121;-66
2023/04/25 11:31:31;;;;;;;0.43;0.33;;;;;;;;;;5078818;27;93897;-66
2023/04/25 11:34:00;;;;;;;1.33;0.40;;;;;;;;;;5081321;27;92067;-66
2023/04/25 11:36:28;;;;;;;3.73;0.40;;;;;;;;;;5083336;27;92059;-67
2023/04/25 11:38:56;;;;;;;0.50;0.40;;;;;;;;;;5082670;27;94257;-66
2023/04/25 11:41:25;;;;;;;0.20;0.20;;;;;;;;;;5086511;27;93089;-66
2023/04/25 11:43:54;;;;;;;0.40;0.20;;;;;;;;;;5086283;27;91938;-66
2023/04/25 11:46:23;;;;;;;0.70;0.40;;;;;;;;;;5082803;27;91794;-66
2023/04/25 11:48:53;;;;;;;2.30;0.40;;;;;;;;;;5082637;27;94854;-66
2023/04/25 11:51:21;;;;;;;0.40;0.20;;;;;;;;;;5082491;27;94849;-66
2023/04/25 11:53:50;;;;;;;0.20;0.20;;;;;;;;;;5083053;27;92023;-66
2023/04/25 11:56:18;;;;;;;0.77;0.60;;;;;;;;;;5083544;27;92089;-65
2023/04/25 11:58:56;;;;;;;0.30;0.30;;;;;;;;;;5082911;27;94650;-66
2023/04/25 12:01:28;;;;;;;1.87;0.47;;;;;;;;;;5082744;27;93894;-66
2023/04/25 12:04:12;;;;;;;0.20;0.20;;;;;;;;;;5082838;27;91953;-66
2023/04/25 12:06:42;;;;;;;2.27;0.40;;;;;;;;;;5082746;27;91259;-66
2023/04/25 12:09:11;;;;;;;0.40;0.40;;;;;;;;;;5082298;27;94183;-66
2023/04/25 12:11:43;;;;;;;0.93;0.30;;;;;;;;;;5082440;27;94433;-66
2023/04/25 12:14:12;;;;;;;0.30;0.30;;;;;;;;;;5082456;27;92785;-66
2023/04/25 12:16:43;;;;;;;0.50;0.50;;;;;;;;;;5082078;27;92050;-66
2023/04/25 12:19:15;;;;;;;3.87;0.90;;;;;;;;;;5082722;27;96973;-66
2023/04/25 12:21:43;;;;;;;0.50;0.50;;;;;;;;;;5082251;27;94037;-66
2023/04/25 12:24:18;;;;;;;0.30;0.30;;;;;;;;;;5082811;27;92040;-66
2023/04/25 12:26:47;;;;;;;2.83;0.60;;;;;;;;;;5082621;27;91988;-67
2023/04/25 12:29:20;;;;;;;1.03;0.40;;;;;;;;;;5081829;27;93958;-66
2023/04/25 12:31:48;;;;;;;0.33;0.27;;;;;;;;;;5081613;27;93779;-66
2023/04/25 12:34:18;;;;;;;0.30;0.30;;;;;;;;;;5082720;27;92190;-66
2023/04/25 12:36:47;;;;;;;0.97;0.20;;;;;;;;;;5081405;27;92010;-66
2023/04/25 12:39:19;;;;;;;0.30;0.20;;;;;;;;;;5081350;27;95457;-66
2023/04/25 12:41:47;;;;;;;0.57;0.30;;;;;;;;;;5081195;27;95256;-66
2023/04/25 12:44:15;;;;;;;0.20;0.20;;;;;;;;;;5082212;27;92019;-66
2023/04/25 12:46:44;;;;;;;0.40;0.40;;;;;;;;;;5080973;27;91958;-66
2023/04/25 12:49:13;;;;;;;3.40;0.60;;;;;;;;;;5081286;27;94531;-66
2023/04/25 12:51:48;;;;;;;0.20;0.20;;;;;;;;;;5080889;27;93558;-65
2023/04/25 12:54:16;;;;;;;0.30;0.30;;;;;;;;;;5081739;27;92063;-66
2023/04/25 12:56:44;;;;;;;0.33;0.33;;;;;;;;;;5081217;27;91304;-66
2023/04/25 12:59:13;;;;;;;0.30;0.30;;;;;;;;;;5080586;27;94178;-66
2023/04/25 13:01:41;;;;;;;0.30;0.30;;;;;;;;;;5081006;27;93588;-65
2023/04/25 13:04:10;;;;;;;1.20;0.70;;;;;;;;;;5081365;27;92946;-66
2023/04/25 13:06:38;;;;;;;0.30;0.30;;;;;;;;;;5080810;27;92363;-65
2023/04/25 13:09:08;;;;;;;0.47;0.40;;;;;;;;;;5081672;27;94261;-66
2023/04/25 13:11:36;;;;;;;0.73;0.30;;;;;;;;;;5081643;27;94344;-65
2023/04/25 13:14:05;;;;;;;1.20;0.30;;;;;;;;;;5082054;27;92099;-66
2023/04/25 13:16:33;;;;;;;0.10;0.10;;;;;;;;;;5081042;27;91973;-68
2023/04/25 13:19:01;;;;;;;0.30;0.30;;;;;;;;;;5081048;27;93933;-67
2023/04/25 13:21:32;;;;;;;0.70;0.40;;;;;;;;;;5081842;27;93917;-67
2023/04/25 13:24:00;;;;;;;0.40;0.40;;;;;;;;;;5081946;27;92061;-67
2023/04/25 13:26:30;;;;;;;0.33;0.33;;;;;;;;;;5081488;27;92142;-68
2023/04/25 13:29:00;;;;;;;0.20;0.20;;;;;;;;;;5080071;27;95076;-66
2023/04/25 13:31:28;;;;;;;0.30;0.30;;;;;;;;;;5080777;27;94841;-65
2023/04/25 13:33:57;;;;;;;0.20;0.20;;;;;;;;;;5081257;27;91870;-67
2023/04/25 13:36:25;;;;;;;0.23;0.20;;;;;;;;;;5080778;27;92008;-68
2023/04/25 13:38:54;;;;;;;1.33;0.50;;;;;;;;;;5081125;27;94138;-68
2023/04/25 13:41:23;;;;;;;0.27;0.27;;;;;;;;;;5080826;27;92764;-68
2023/04/25 13:43:53;;;;;;;0.30;0.30;;;;;;;;;;5081301;27;91837;-68
2023/04/25 13:46:21;;;;;;;0.37;0.37;;;;;;;;;;5081512;27;91262;-66
2023/04/25 13:49:10;;;;;;;0.20;0.20;;;;;;;;;;5080720;27;94890;-67
2023/04/25 13:51:40;;;;;;;1.03;0.40;;;;;;;;;;5080650;27;94992;-67
2023/04/25 13:54:09;;;;;;;0.40;0.40;;;;;;;;;;5080641;27;92991;-67
2023/04/25 13:56:37;;;;;;;0.20;0.20;;;;;;;;;;5080748;27;92011;-67
2023/04/25 13:59:07;;;;;;;0.40;0.40;;;;;;;;;;5080182;27;94149;-67
2023/04/25 14:01:36;;;;;;;0.23;0.23;;;;;;;;;;5080102;27;94205;-67
2023/04/25 14:04:05;;;;;;;1.23;0.30;;;;;;;;;;5080651;27;92036;-67
2023/04/25 14:06:33;;;;;;;1.53;0.30;;;;;;;;;;5079348;27;92048;-67
2023/04/25 14:09:04;;;;;;;0.30;0.30;;;;;;;;;;5079155;27;94208;-68
2023/04/25 14:11:32;;;;;;;0.50;0.50;;;;;;;;;;5080552;27;93723;-67
2023/04/25 14:14:01;;;;;;;0.27;0.27;;;;;;;;;;5080686;27;91959;-67
2023/04/25 14:16:31;;;;;;;0.37;0.30;;;;;;;;;;5079985;27;92289;-67
2023/04/25 14:19:00;;;;;;;6.23;0.80;;;;;;;;;;5079711;27;95030;-67
2023/04/25 14:21:28;;;;;;;0.20;0.20;;;;;;;;;;5080411;27;94736;-67
2023/04/25 14:23:56;;;;;;;0.40;0.40;;;;;;;;;;5080538;27;92169;-67
2023/04/25 14:26:25;;;;;;;0.47;0.47;;;;;;;;;;5080308;27;92025;-65
2023/04/25 14:28:53;;;;;;;0.50;0.50;;;;;;;;;;5080103;27;94076;-67
2023/04/25 14:31:22;;;;;;;0.40;0.40;;;;;;;;;;5080092;27;93916;-65
2023/04/25 14:33:51;;;;;;;0.30;0.30;;;;;;;;;;5080797;27;92070;-65
2023/04/25 14:36:21;;;;;;;0.50;0.50;;;;;;;;;;5080281;27;91350;-65
2023/04/25 14:38:49;;;;;;;0.77;0.40;;;;;;;;;;5079646;27;93074;-65
2023/04/25 14:41:17;;;;;;;0.20;0.20;;;;;;;;;;5079741;27;93923;-66
2023/04/25 14:43:46;;;;;;;0.30;0.30;;;;;;;;;;5079455;27;92842;-65
2023/04/25 14:46:14;;;;;;;0.27;0.20;;;;;;;;;;5079192;27;92192;-65
2023/04/25 14:48:43;;;;;;;1.33;0.50;;;;;;;;;;5079214;27;94187;-66
2023/04/25 14:51:13;;;;;;;2.67;0.40;;;;;;;;;;5079873;27;93764;-65
2023/04/25 14:53:41;;;;;;;0.30;0.30;;;;;;;;;;5079673;27;92000;-65
2023/04/25 14:56:10;;;;;;;0.40;0.40;;;;;;;;;;5079921;27;92193;-65